sensor_id;sensor_type;location;lat;lon;timestamp;P1;durP1;ratioP1;P2;durP2;ratioP2
23360;SDS011;11852;50.082;18.554;2024-01-30T00:00:11;23.6;;;13.0;;
23360;SDS011;11852;50.082;18.554;2024-01-30T00:01:16;23.4;;;12.9;;
23360;SDS011;11852;50.082;18.554;2024-01-30T00:02:21;23.4;;;12.9;;
23360;SDS011;11852;50.082;18.554;2024-01-30T00:03:26;23.4;;;12.9;;
23360;SDS011;11852;50.082;18.554;2024-01-30T00:04:30;23.4;;;12.9;;
23360;SDS011;11852;50.082;18.554;2024-01-30T00:05:35;23.4;;;12.9;;
23360;SDS011;11852;50.082;18.554;2024-01-30T00:06:40;23.4;;;12.9;;
23360;SDS011;11852;50.082;18.554;2024-01-30T00:07:45;23.4;;;12.9;;
23360;SDS011;11852;50.082;18.554;2024-01-30T00:08:50;23.4;;;12.9;;
23360;SDS011;11852;50.082;18.554;2024-01-30T00:09:55;25.3;;;13.7;;
23360;SDS011;11852;50.082;18.554;2024-01-30T00:11:00;27.5;;;15.6;;
23360;SDS011;11852;50.082;18.554;2024-01-30T00:12:05;25.2;;;14.5;;
23360;SDS011;11852;50.082;18.554;2024-01-30T00:13:10;27.5;;;14.3;;
23360;SDS011;11852;50.082;18.554;2024-01-30T00:14:15;24.6;;;13.5;;
23360;SDS011;11852;50.082;18.554;2024-01-30T00:15:20;27.6;;;15.2;;
23360;SDS011;11852;50.082;18.554;2024-01-30T00:16:26;26.8;;;14.5;;
23360;SDS011;11852;50.082;18.554;2024-01-30T00:17:30;24.8;;;13.4;;
23360;SDS011;11852;50.082;18.554;2024-01-30T00:18:35;24.8;;;13.4;;
23360;SDS011;11852;50.082;18.554;2024-01-30T00:19:40;24.8;;;13.4;;
23360;SDS011;11852;50.082;18.554;2024-01-30T00:20:45;24.8;;;13.4;;
23360;SDS011;11852;50.082;18.554;2024-01-30T00:21:50;21.1;;;12.0;;
23360;SDS011;11852;50.082;18.554;2024-01-30T00:22:55;23.6;;;13.2;;
23360;SDS011;11852;50.082;18.554;2024-01-30T00:24:00;22.3;;;13.1;;
23360;SDS011;11852;50.082;18.554;2024-01-30T00:25:05;19.2;;;11.4;;
23360;SDS011;11852;50.082;18.554;2024-01-30T00:26:10;20.5;;;11.7;;
23360;SDS011;11852;50.082;18.554;2024-01-30T00:27:15;20.5;;;11.7;;
23360;SDS011;11852;50.082;18.554;2024-01-30T00:28:20;20.5;;;11.7;;
23360;SDS011;11852;50.082;18.554;2024-01-30T00:29:25;20.5;;;11.7;;
23360;SDS011;11852;50.082;18.554;2024-01-30T00:30:30;20.5;;;11.7;;
23360;SDS011;11852;50.082;18.554;2024-01-30T00:31:35;20.5;;;11.7;;
23360;SDS011;11852;50.082;18.554;2024-01-30T00:32:43;20.5;;;11.7;;
23360;SDS011;11852;50.082;18.554;2024-01-30T00:33:48;20.5;;;11.7;;
23360;SDS011;11852;50.082;18.554;2024-01-30T00:34:53;18.9;;;11.4;;
23360;SDS011;11852;50.082;18.554;2024-01-30T00:35:58;18.9;;;11.4;;
23360;SDS011;11852;50.082;18.554;2024-01-30T00:37:03;18.9;;;11.4;;
23360;SDS011;11852;50.082;18.554;2024-01-30T00:38:08;18.9;;;11.4;;
23360;SDS011;11852;50.082;18.554;2024-01-30T00:39:12;18.9;;;11.4;;
23360;SDS011;11852;50.082;18.554;2024-01-30T00:40:17;18.6;;;10.9;;
23360;SDS011;11852;50.082;18.554;2024-01-30T00:41:22;16.2;;;9.3;;
23360;SDS011;11852;50.082;18.554;2024-01-30T00:42:27;18.4;;;10.1;;
23360;SDS011;11852;50.082;18.554;2024-01-30T00:43:32;17.7;;;10.6;;
23360;SDS011;11852;50.082;18.554;2024-01-30T00:44:38;18.2;;;10.9;;
23360;SDS011;11852;50.082;18.554;2024-01-30T00:45:46;18.0;;;10.1;;
23360;SDS011;11852;50.082;18.554;2024-01-30T00:46:50;17.9;;;10.4;;
23360;SDS011;11852;50.082;18.554;2024-01-30T00:47:55;17.9;;;10.4;;
23360;SDS011;11852;50.082;18.554;2024-01-30T00:49:00;17.9;;;10.4;;
23360;SDS011;11852;50.082;18.554;2024-01-30T00:50:05;18.3;;;10.2;;
23360;SDS011;11852;50.082;18.554;2024-01-30T00:51:10;18.3;;;10.2;;
23360;SDS011;11852;50.082;18.554;2024-01-30T00:52:16;19.0;;;10.6;;
23360;SDS011;11852;50.082;18.554;2024-01-30T00:53:20;19.5;;;10.6;;
23360;SDS011;11852;50.082;18.554;2024-01-30T00:54:25;16.3;;;9.2;;
23360;SDS011;11852;50.082;18.554;2024-01-30T00:55:30;15.2;;;8.9;;
23360;SDS011;11852;50.082;18.554;2024-01-30T00:56:35;16.9;;;10.1;;
23360;SDS011;11852;50.082;18.554;2024-01-30T00:57:46;17.1;;;10.1;;
23360;SDS011;11852;50.082;18.554;2024-01-30T00:58:51;17.6;;;10.5;;
23360;SDS011;11852;50.082;18.554;2024-01-30T00:59:56;16.9;;;9.6;;
23360;SDS011;11852;50.082;18.554;2024-01-30T01:01:01;15.5;;;9.1;;
23360;SDS011;11852;50.082;18.554;2024-01-30T01:02:09;16.9;;;10.4;;
23360;SDS011;11852;50.082;18.554;2024-01-30T01:03:14;16.1;;;9.4;;
23360;SDS011;11852;50.082;18.554;2024-01-30T01:04:19;16.7;;;9.7;;
23360;SDS011;11852;50.082;18.554;2024-01-30T01:05:24;17.0;;;10.0;;
23360;SDS011;11852;50.082;18.554;2024-01-30T01:06:29;16.8;;;10.4;;
23360;SDS011;11852;50.082;18.554;2024-01-30T01:07:34;16.3;;;9.7;;
23360;SDS011;11852;50.082;18.554;2024-01-30T01:08:39;16.6;;;9.6;;
23360;SDS011;11852;50.082;18.554;2024-01-30T01:09:44;17.3;;;10.3;;
23360;SDS011;11852;50.082;18.554;2024-01-30T01:10:49;15.2;;;9.2;;
23360;SDS011;11852;50.082;18.554;2024-01-30T01:11:54;16.7;;;9.9;;
23360;SDS011;11852;50.082;18.554;2024-01-30T01:13:00;17.8;;;10.2;;
23360;SDS011;11852;50.082;18.554;2024-01-30T01:14:05;16.5;;;9.8;;
23360;SDS011;11852;50.082;18.554;2024-01-30T01:15:10;16.6;;;10.1;;
23360;SDS011;11852;50.082;18.554;2024-01-30T01:16:15;14.9;;;8.7;;
23360;SDS011;11852;50.082;18.554;2024-01-30T01:17:20;16.6;;;9.5;;
23360;SDS011;11852;50.082;18.554;2024-01-30T01:18:25;16.6;;;9.5;;
23360;SDS011;11852;50.082;18.554;2024-01-30T01:19:29;16.6;;;9.5;;
23360;SDS011;11852;50.082;18.554;2024-01-30T01:20:35;16.6;;;9.5;;
23360;SDS011;11852;50.082;18.554;2024-01-30T01:21:39;16.6;;;9.5;;
23360;SDS011;11852;50.082;18.554;2024-01-30T01:22:44;16.4;;;9.8;;
23360;SDS011;11852;50.082;18.554;2024-01-30T01:23:50;16.0;;;9.6;;
23360;SDS011;11852;50.082;18.554;2024-01-30T01:24:56;15.5;;;9.6;;
23360;SDS011;11852;50.082;18.554;2024-01-30T01:26:01;18.6;;;10.1;;
23360;SDS011;11852;50.082;18.554;2024-01-30T01:27:06;15.1;;;9.4;;
23360;SDS011;11852;50.082;18.554;2024-01-30T01:28:11;16.9;;;9.8;;
23360;SDS011;11852;50.082;18.554;2024-01-30T01:29:16;16.3;;;10.2;;
23360;SDS011;11852;50.082;18.554;2024-01-30T01:30:24;17.3;;;10.1;;
23360;SDS011;11852;50.082;18.554;2024-01-30T01:31:29;15.5;;;9.1;;
23360;SDS011;11852;50.082;18.554;2024-01-30T01:32:36;15.2;;;9.1;;
23360;SDS011;11852;50.082;18.554;2024-01-30T01:33:41;16.6;;;9.2;;
23360;SDS011;11852;50.082;18.554;2024-01-30T01:34:46;16.5;;;10.2;;
23360;SDS011;11852;50.082;18.554;2024-01-30T01:35:51;15.8;;;9.7;;
23360;SDS011;11852;50.082;18.554;2024-01-30T01:36:56;17.3;;;9.9;;
23360;SDS011;11852;50.082;18.554;2024-01-30T01:38:01;15.6;;;9.3;;
23360;SDS011;11852;50.082;18.554;2024-01-30T01:39:09;15.9;;;10.0;;
23360;SDS011;11852;50.082;18.554;2024-01-30T01:40:14;16.4;;;9.5;;
23360;SDS011;11852;50.082;18.554;2024-01-30T01:41:19;16.8;;;10.0;;
23360;SDS011;11852;50.082;18.554;2024-01-30T01:42:24;17.9;;;9.6;;
23360;SDS011;11852;50.082;18.554;2024-01-30T01:43:29;15.7;;;9.7;;
23360;SDS011;11852;50.082;18.554;2024-01-30T01:44:34;17.6;;;9.6;;
23360;SDS011;11852;50.082;18.554;2024-01-30T01:45:39;16.2;;;9.7;;
23360;SDS011;11852;50.082;18.554;2024-01-30T01:46:44;16.5;;;10.1;;
23360;SDS011;11852;50.082;18.554;2024-01-30T01:47:52;16.9;;;9.5;;
23360;SDS011;11852;50.082;18.554;2024-01-30T01:48:57;16.6;;;9.8;;
23360;SDS011;11852;50.082;18.554;2024-01-30T01:50:02;16.6;;;9.9;;
23360;SDS011;11852;50.082;18.554;2024-01-30T01:51:07;15.6;;;9.0;;
23360;SDS011;11852;50.082;18.554;2024-01-30T01:52:12;14.1;;;8.7;;
23360;SDS011;11852;50.082;18.554;2024-01-30T01:53:16;15.5;;;9.6;;
23360;SDS011;11852;50.082;18.554;2024-01-30T01:54:21;14.9;;;9.2;;
23360;SDS011;11852;50.082;18.554;2024-01-30T01:55:26;16.7;;;9.8;;
23360;SDS011;11852;50.082;18.554;2024-01-30T01:56:31;18.5;;;10.9;;
23360;SDS011;11852;50.082;18.554;2024-01-30T01:57:36;16.1;;;9.7;;
23360;SDS011;11852;50.082;18.554;2024-01-30T01:58:41;16.7;;;9.9;;
23360;SDS011;11852;50.082;18.554;2024-01-30T01:59:46;17.4;;;10.2;;
23360;SDS011;11852;50.082;18.554;2024-01-30T02:00:51;15.1;;;8.9;;
23360;SDS011;11852;50.082;18.554;2024-01-30T02:01:56;15.3;;;9.6;;
23360;SDS011;11852;50.082;18.554;2024-01-30T02:03:01;15.2;;;9.2;;
23360;SDS011;11852;50.082;18.554;2024-01-30T02:04:07;15.4;;;9.7;;
23360;SDS011;11852;50.082;18.554;2024-01-30T02:05:11;17.2;;;10.2;;
23360;SDS011;11852;50.082;18.554;2024-01-30T02:06:16;16.0;;;10.3;;
23360;SDS011;11852;50.082;18.554;2024-01-30T02:07:21;17.4;;;10.7;;
23360;SDS011;11852;50.082;18.554;2024-01-30T02:08:26;16.0;;;10.2;;
23360;SDS011;11852;50.082;18.554;2024-01-30T02:09:31;15.8;;;9.8;;
23360;SDS011;11852;50.082;18.554;2024-01-30T02:10:36;16.5;;;10.1;;
23360;SDS011;11852;50.082;18.554;2024-01-30T02:11:42;16.0;;;9.4;;
23360;SDS011;11852;50.082;18.554;2024-01-30T02:12:50;15.0;;;9.5;;
23360;SDS011;11852;50.082;18.554;2024-01-30T02:13:55;14.8;;;8.9;;
23360;SDS011;11852;50.082;18.554;2024-01-30T02:15:00;17.5;;;10.3;;
23360;SDS011;11852;50.082;18.554;2024-01-30T02:16:05;16.8;;;10.0;;
23360;SDS011;11852;50.082;18.554;2024-01-30T02:17:10;18.1;;;10.3;;
23360;SDS011;11852;50.082;18.554;2024-01-30T02:18:15;16.4;;;10.5;;
23360;SDS011;11852;50.082;18.554;2024-01-30T02:19:20;16.3;;;9.6;;
23360;SDS011;11852;50.082;18.554;2024-01-30T02:20:25;15.5;;;9.1;;
23360;SDS011;11852;50.082;18.554;2024-01-30T02:21:30;17.6;;;9.9;;
23360;SDS011;11852;50.082;18.554;2024-01-30T02:22:38;17.5;;;10.6;;
23360;SDS011;11852;50.082;18.554;2024-01-30T02:23:43;15.6;;;9.1;;
23360;SDS011;11852;50.082;18.554;2024-01-30T02:24:48;16.4;;;10.4;;
23360;SDS011;11852;50.082;18.554;2024-01-30T02:25:53;17.1;;;10.0;;
23360;SDS011;11852;50.082;18.554;2024-01-30T02:26:58;18.5;;;11.0;;
23360;SDS011;11852;50.082;18.554;2024-01-30T02:28:03;15.6;;;9.6;;
23360;SDS011;11852;50.082;18.554;2024-01-30T02:29:08;16.4;;;9.7;;
23360;SDS011;11852;50.082;18.554;2024-01-30T02:30:13;16.8;;;9.4;;
23360;SDS011;11852;50.082;18.554;2024-01-30T02:31:19;16.2;;;9.9;;
23360;SDS011;11852;50.082;18.554;2024-01-30T02:32:24;15.8;;;10.3;;
23360;SDS011;11852;50.082;18.554;2024-01-30T02:33:29;16.2;;;9.6;;
23360;SDS011;11852;50.082;18.554;2024-01-30T02:34:34;15.5;;;9.4;;
23360;SDS011;11852;50.082;18.554;2024-01-30T02:35:39;16.5;;;9.3;;
23360;SDS011;11852;50.082;18.554;2024-01-30T02:36:44;16.4;;;10.3;;
23360;SDS011;11852;50.082;18.554;2024-01-30T02:37:49;16.5;;;10.4;;
23360;SDS011;11852;50.082;18.554;2024-01-30T02:38:54;17.4;;;10.2;;
23360;SDS011;11852;50.082;18.554;2024-01-30T02:39:59;18.0;;;10.5;;
23360;SDS011;11852;50.082;18.554;2024-01-30T02:41:04;15.3;;;9.6;;
23360;SDS011;11852;50.082;18.554;2024-01-30T02:42:09;16.5;;;9.7;;
23360;SDS011;11852;50.082;18.554;2024-01-30T02:43:15;17.1;;;10.2;;
23360;SDS011;11852;50.082;18.554;2024-01-30T02:44:19;17.5;;;10.3;;
23360;SDS011;11852;50.082;18.554;2024-01-30T02:45:24;15.2;;;9.2;;
23360;SDS011;11852;50.082;18.554;2024-01-30T02:46:29;16.2;;;9.9;;
23360;SDS011;11852;50.082;18.554;2024-01-30T02:47:34;13.7;;;8.6;;
23360;SDS011;11852;50.082;18.554;2024-01-30T02:48:39;16.5;;;9.5;;
23360;SDS011;11852;50.082;18.554;2024-01-30T02:49:44;14.4;;;8.9;;
23360;SDS011;11852;50.082;18.554;2024-01-30T02:50:49;17.6;;;10.3;;
23360;SDS011;11852;50.082;18.554;2024-01-30T02:51:54;16.9;;;10.6;;
23360;SDS011;11852;50.082;18.554;2024-01-30T02:52:59;17.1;;;10.0;;
23360;SDS011;11852;50.082;18.554;2024-01-30T02:54:04;16.8;;;10.8;;
23360;SDS011;11852;50.082;18.554;2024-01-30T02:55:09;17.5;;;10.6;;
23360;SDS011;11852;50.082;18.554;2024-01-30T02:56:14;17.1;;;10.1;;
23360;SDS011;11852;50.082;18.554;2024-01-30T02:57:19;15.9;;;9.9;;
23360;SDS011;11852;50.082;18.554;2024-01-30T02:58:23;17.4;;;10.8;;
23360;SDS011;11852;50.082;18.554;2024-01-30T02:59:28;15.2;;;10.3;;
23360;SDS011;11852;50.082;18.554;2024-01-30T03:00:33;15.9;;;10.4;;
23360;SDS011;11852;50.082;18.554;2024-01-30T03:02:47;15.2;;;9.3;;
23360;SDS011;11852;50.082;18.554;2024-01-30T03:03:55;16.7;;;9.8;;
23360;SDS011;11852;50.082;18.554;2024-01-30T03:05:00;16.2;;;10.1;;
23360;SDS011;11852;50.082;18.554;2024-01-30T03:06:05;15.3;;;9.2;;
23360;SDS011;11852;50.082;18.554;2024-01-30T03:07:09;15.9;;;10.9;;
23360;SDS011;11852;50.082;18.554;2024-01-30T03:08:14;17.8;;;10.3;;
23360;SDS011;11852;50.082;18.554;2024-01-30T03:09:19;17.9;;;9.8;;
23360;SDS011;11852;50.082;18.554;2024-01-30T03:10:24;18.3;;;10.7;;
23360;SDS011;11852;50.082;18.554;2024-01-30T03:11:28;17.2;;;10.3;;
23360;SDS011;11852;50.082;18.554;2024-01-30T03:12:36;15.9;;;10.3;;
23360;SDS011;11852;50.082;18.554;2024-01-30T03:13:41;17.0;;;10.4;;
23360;SDS011;11852;50.082;18.554;2024-01-30T03:14:45;18.5;;;11.8;;
23360;SDS011;11852;50.082;18.554;2024-01-30T03:15:50;16.4;;;10.2;;
23360;SDS011;11852;50.082;18.554;2024-01-30T03:16:55;16.5;;;10.3;;
23360;SDS011;11852;50.082;18.554;2024-01-30T03:17:59;15.7;;;9.5;;
23360;SDS011;11852;50.082;18.554;2024-01-30T03:19:07;17.0;;;10.9;;
23360;SDS011;11852;50.082;18.554;2024-01-30T03:20:12;17.8;;;11.2;;
23360;SDS011;11852;50.082;18.554;2024-01-30T03:21:17;18.0;;;10.9;;
23360;SDS011;11852;50.082;18.554;2024-01-30T03:22:22;16.2;;;9.6;;
23360;SDS011;11852;50.082;18.554;2024-01-30T03:23:26;16.4;;;10.3;;
23360;SDS011;11852;50.082;18.554;2024-01-30T03:24:31;18.8;;;11.3;;
23360;SDS011;11852;50.082;18.554;2024-01-30T03:25:36;15.7;;;10.2;;
23360;SDS011;11852;50.082;18.554;2024-01-30T03:26:41;18.3;;;11.1;;
23360;SDS011;11852;50.082;18.554;2024-01-30T03:27:45;17.8;;;10.0;;
23360;SDS011;11852;50.082;18.554;2024-01-30T03:28:50;16.7;;;10.4;;
23360;SDS011;11852;50.082;18.554;2024-01-30T03:29:55;16.6;;;10.7;;
23360;SDS011;11852;50.082;18.554;2024-01-30T03:31:00;16.4;;;9.8;;
23360;SDS011;11852;50.082;18.554;2024-01-30T03:32:04;18.8;;;10.9;;
23360;SDS011;11852;50.082;18.554;2024-01-30T03:33:09;18.5;;;11.3;;
23360;SDS011;11852;50.082;18.554;2024-01-30T03:34:14;17.7;;;10.8;;
23360;SDS011;11852;50.082;18.554;2024-01-30T03:35:19;19.8;;;10.9;;
23360;SDS011;11852;50.082;18.554;2024-01-30T03:36:24;17.7;;;11.0;;
23360;SDS011;11852;50.082;18.554;2024-01-30T03:37:28;17.5;;;10.7;;
23360;SDS011;11852;50.082;18.554;2024-01-30T03:38:39;17.5;;;10.5;;
23360;SDS011;11852;50.082;18.554;2024-01-30T03:39:43;17.8;;;10.9;;
23360;SDS011;11852;50.082;18.554;2024-01-30T03:40:48;17.0;;;9.4;;
23360;SDS011;11852;50.082;18.554;2024-01-30T03:41:53;16.7;;;10.1;;
23360;SDS011;11852;50.082;18.554;2024-01-30T03:42:58;16.9;;;10.4;;
23360;SDS011;11852;50.082;18.554;2024-01-30T03:44:02;18.6;;;11.0;;
23360;SDS011;11852;50.082;18.554;2024-01-30T03:45:07;18.1;;;11.4;;
23360;SDS011;11852;50.082;18.554;2024-01-30T03:46:15;17.1;;;10.3;;
23360;SDS011;11852;50.082;18.554;2024-01-30T03:47:21;16.2;;;10.0;;
23360;SDS011;11852;50.082;18.554;2024-01-30T03:48:27;16.6;;;10.4;;
23360;SDS011;11852;50.082;18.554;2024-01-30T03:49:32;17.4;;;11.0;;
23360;SDS011;11852;50.082;18.554;2024-01-30T03:50:37;15.9;;;10.4;;
23360;SDS011;11852;50.082;18.554;2024-01-30T03:51:42;15.7;;;10.3;;
23360;SDS011;11852;50.082;18.554;2024-01-30T03:52:47;19.5;;;10.7;;
23360;SDS011;11852;50.082;18.554;2024-01-30T03:53:52;18.8;;;11.1;;
23360;SDS011;11852;50.082;18.554;2024-01-30T03:54:57;17.0;;;9.9;;
23360;SDS011;11852;50.082;18.554;2024-01-30T03:56:02;16.3;;;9.9;;
23360;SDS011;11852;50.082;18.554;2024-01-30T03:57:07;18.0;;;10.6;;
23360;SDS011;11852;50.082;18.554;2024-01-30T03:58:13;17.2;;;10.2;;
23360;SDS011;11852;50.082;18.554;2024-01-30T03:59:18;17.2;;;10.2;;
23360;SDS011;11852;50.082;18.554;2024-01-30T04:00:23;18.0;;;10.7;;
23360;SDS011;11852;50.082;18.554;2024-01-30T04:01:28;17.1;;;9.9;;
23360;SDS011;11852;50.082;18.554;2024-01-30T04:02:33;18.1;;;10.7;;
23360;SDS011;11852;50.082;18.554;2024-01-30T04:03:38;17.4;;;11.1;;
23360;SDS011;11852;50.082;18.554;2024-01-30T04:04:42;16.4;;;9.6;;
23360;SDS011;11852;50.082;18.554;2024-01-30T04:05:51;16.8;;;10.1;;
23360;SDS011;11852;50.082;18.554;2024-01-30T04:06:54;19.7;;;10.6;;
23360;SDS011;11852;50.082;18.554;2024-01-30T04:07:59;17.4;;;10.4;;
23360;SDS011;11852;50.082;18.554;2024-01-30T04:09:04;17.3;;;10.6;;
23360;SDS011;11852;50.082;18.554;2024-01-30T04:11:06;17.3;;;10.6;;
23360;SDS011;11852;50.082;18.554;2024-01-30T04:12:09;17.3;;;10.6;;
23360;SDS011;11852;50.082;18.554;2024-01-30T04:14:12;17.3;;;10.6;;
23360;SDS011;11852;50.082;18.554;2024-01-30T04:16:01;17.3;;;10.6;;
23360;SDS011;11852;50.082;18.554;2024-01-30T04:17:09;16.5;;;10.3;;
23360;SDS011;11852;50.082;18.554;2024-01-30T04:18:14;17.2;;;9.5;;
23360;SDS011;11852;50.082;18.554;2024-01-30T04:19:19;16.0;;;9.6;;
23360;SDS011;11852;50.082;18.554;2024-01-30T04:20:24;16.2;;;10.5;;
23360;SDS011;11852;50.082;18.554;2024-01-30T04:21:29;16.3;;;9.9;;
23360;SDS011;11852;50.082;18.554;2024-01-30T04:22:34;16.3;;;9.2;;
23360;SDS011;11852;50.082;18.554;2024-01-30T04:23:39;14.6;;;8.5;;
23360;SDS011;11852;50.082;18.554;2024-01-30T04:24:46;16.8;;;9.8;;
23360;SDS011;11852;50.082;18.554;2024-01-30T04:25:51;21.8;;;9.9;;
23360;SDS011;11852;50.082;18.554;2024-01-30T04:26:55;15.2;;;9.3;;
23360;SDS011;11852;50.082;18.554;2024-01-30T04:28:00;16.6;;;9.9;;
23360;SDS011;11852;50.082;18.554;2024-01-30T04:29:05;17.0;;;9.6;;
23360;SDS011;11852;50.082;18.554;2024-01-30T04:30:10;20.1;;;10.6;;
23360;SDS011;11852;50.082;18.554;2024-01-30T04:31:15;17.8;;;9.8;;
23360;SDS011;11852;50.082;18.554;2024-01-30T04:32:19;15.7;;;9.1;;
23360;SDS011;11852;50.082;18.554;2024-01-30T04:33:24;14.8;;;8.5;;
23360;SDS011;11852;50.082;18.554;2024-01-30T04:34:29;16.1;;;9.5;;
23360;SDS011;11852;50.082;18.554;2024-01-30T04:35:34;15.8;;;9.9;;
23360;SDS011;11852;50.082;18.554;2024-01-30T04:36:38;15.5;;;9.6;;
23360;SDS011;11852;50.082;18.554;2024-01-30T04:37:43;17.1;;;10.1;;
23360;SDS011;11852;50.082;18.554;2024-01-30T04:38:48;16.6;;;9.9;;
23360;SDS011;11852;50.082;18.554;2024-01-30T04:39:52;14.9;;;9.3;;
23360;SDS011;11852;50.082;18.554;2024-01-30T04:40:57;16.0;;;9.5;;
23360;SDS011;11852;50.082;18.554;2024-01-30T04:42:02;16.1;;;10.1;;
23360;SDS011;11852;50.082;18.554;2024-01-30T04:43:07;17.1;;;10.1;;
23360;SDS011;11852;50.082;18.554;2024-01-30T04:44:11;17.3;;;9.5;;
23360;SDS011;11852;50.082;18.554;2024-01-30T04:45:16;17.9;;;10.4;;
23360;SDS011;11852;50.082;18.554;2024-01-30T04:46:21;16.1;;;9.3;;
23360;SDS011;11852;50.082;18.554;2024-01-30T04:47:26;16.7;;;9.3;;
23360;SDS011;11852;50.082;18.554;2024-01-30T04:48:31;15.2;;;9.4;;
23360;SDS011;11852;50.082;18.554;2024-01-30T04:49:35;16.3;;;9.7;;
23360;SDS011;11852;50.082;18.554;2024-01-30T04:50:40;14.8;;;9.0;;
23360;SDS011;11852;50.082;18.554;2024-01-30T04:51:45;15.1;;;9.0;;
23360;SDS011;11852;50.082;18.554;2024-01-30T04:52:50;16.3;;;9.9;;
23360;SDS011;11852;50.082;18.554;2024-01-30T04:53:55;15.2;;;8.7;;
23360;SDS011;11852;50.082;18.554;2024-01-30T04:54:59;15.5;;;9.7;;
23360;SDS011;11852;50.082;18.554;2024-01-30T04:56:04;15.8;;;9.4;;
23360;SDS011;11852;50.082;18.554;2024-01-30T04:57:09;18.7;;;10.4;;
23360;SDS011;11852;50.082;18.554;2024-01-30T04:58:14;16.4;;;9.4;;
23360;SDS011;11852;50.082;18.554;2024-01-30T04:59:19;17.2;;;10.2;;
23360;SDS011;11852;50.082;18.554;2024-01-30T05:00:23;16.0;;;9.3;;
23360;SDS011;11852;50.082;18.554;2024-01-30T05:01:31;16.0;;;10.0;;
23360;SDS011;11852;50.082;18.554;2024-01-30T05:02:36;15.2;;;9.4;;
23360;SDS011;11852;50.082;18.554;2024-01-30T05:03:40;16.3;;;9.9;;
23360;SDS011;11852;50.082;18.554;2024-01-30T05:04:45;16.6;;;10.1;;
23360;SDS011;11852;50.082;18.554;2024-01-30T05:05:50;19.4;;;10.2;;
23360;SDS011;11852;50.082;18.554;2024-01-30T05:06:55;16.3;;;10.4;;
23360;SDS011;11852;50.082;18.554;2024-01-30T05:07:59;17.6;;;10.1;;
23360;SDS011;11852;50.082;18.554;2024-01-30T05:09:04;16.5;;;9.3;;
23360;SDS011;11852;50.082;18.554;2024-01-30T05:10:09;17.4;;;10.3;;
23360;SDS011;11852;50.082;18.554;2024-01-30T05:11:14;17.5;;;10.0;;
23360;SDS011;11852;50.082;18.554;2024-01-30T05:12:18;20.0;;;10.8;;
23360;SDS011;11852;50.082;18.554;2024-01-30T05:13:23;19.0;;;10.4;;
23360;SDS011;11852;50.082;18.554;2024-01-30T05:14:28;21.3;;;10.3;;
23360;SDS011;11852;50.082;18.554;2024-01-30T05:15:33;19.0;;;10.7;;
23360;SDS011;11852;50.082;18.554;2024-01-30T05:16:37;20.5;;;11.3;;
23360;SDS011;11852;50.082;18.554;2024-01-30T05:17:42;21.7;;;11.5;;
23360;SDS011;11852;50.082;18.554;2024-01-30T05:18:47;18.9;;;10.5;;
23360;SDS011;11852;50.082;18.554;2024-01-30T05:19:52;20.0;;;11.9;;
23360;SDS011;11852;50.082;18.554;2024-01-30T05:20:57;21.2;;;11.5;;
23360;SDS011;11852;50.082;18.554;2024-01-30T05:22:01;22.8;;;12.2;;
23360;SDS011;11852;50.082;18.554;2024-01-30T05:23:06;20.8;;;11.4;;
23360;SDS011;11852;50.082;18.554;2024-01-30T05:24:14;20.8;;;11.4;;
23360;SDS011;11852;50.082;18.554;2024-01-30T05:25:19;20.8;;;11.4;;
23360;SDS011;11852;50.082;18.554;2024-01-30T05:26:24;20.8;;;11.4;;
23360;SDS011;11852;50.082;18.554;2024-01-30T05:27:29;21.1;;;11.6;;
23360;SDS011;11852;50.082;18.554;2024-01-30T05:28:36;20.9;;;12.0;;
23360;SDS011;11852;50.082;18.554;2024-01-30T05:29:41;19.8;;;11.6;;
23360;SDS011;11852;50.082;18.554;2024-01-30T05:30:46;20.2;;;11.7;;
23360;SDS011;11852;50.082;18.554;2024-01-30T05:31:51;19.0;;;11.4;;
23360;SDS011;11852;50.082;18.554;2024-01-30T05:32:57;20.0;;;11.5;;
23360;SDS011;11852;50.082;18.554;2024-01-30T05:34:02;23.5;;;11.7;;
23360;SDS011;11852;50.082;18.554;2024-01-30T05:35:10;21.9;;;11.8;;
23360;SDS011;11852;50.082;18.554;2024-01-30T05:36:15;21.4;;;11.7;;
23360;SDS011;11852;50.082;18.554;2024-01-30T05:37:20;21.2;;;11.7;;
23360;SDS011;11852;50.082;18.554;2024-01-30T05:38:25;20.8;;;11.8;;
23360;SDS011;11852;50.082;18.554;2024-01-30T05:39:30;19.6;;;11.5;;
23360;SDS011;11852;50.082;18.554;2024-01-30T05:40:35;20.2;;;11.4;;
23360;SDS011;11852;50.082;18.554;2024-01-30T05:41:41;19.1;;;11.6;;
23360;SDS011;11852;50.082;18.554;2024-01-30T05:42:51;20.4;;;10.9;;
23360;SDS011;11852;50.082;18.554;2024-01-30T05:43:56;20.4;;;10.9;;
23360;SDS011;11852;50.082;18.554;2024-01-30T05:45:01;22.7;;;12.7;;
23360;SDS011;11852;50.082;18.554;2024-01-30T05:46:06;21.3;;;12.0;;
23360;SDS011;11852;50.082;18.554;2024-01-30T05:47:11;19.5;;;11.8;;
23360;SDS011;11852;50.082;18.554;2024-01-30T05:48:17;19.4;;;10.8;;
23360;SDS011;11852;50.082;18.554;2024-01-30T05:49:21;21.3;;;12.0;;
23360;SDS011;11852;50.082;18.554;2024-01-30T05:50:26;20.5;;;11.8;;
23360;SDS011;11852;50.082;18.554;2024-01-30T05:51:32;18.9;;;11.3;;
23360;SDS011;11852;50.082;18.554;2024-01-30T05:52:36;20.4;;;11.4;;
23360;SDS011;11852;50.082;18.554;2024-01-30T05:53:41;19.9;;;10.8;;
23360;SDS011;11852;50.082;18.554;2024-01-30T05:54:46;19.4;;;11.5;;
23360;SDS011;11852;50.082;18.554;2024-01-30T05:55:51;20.6;;;11.9;;
23360;SDS011;11852;50.082;18.554;2024-01-30T05:56:56;19.5;;;11.3;;
23360;SDS011;11852;50.082;18.554;2024-01-30T05:58:01;17.5;;;10.9;;
23360;SDS011;11852;50.082;18.554;2024-01-30T05:59:05;19.2;;;11.1;;
23360;SDS011;11852;50.082;18.554;2024-01-30T06:00:10;19.8;;;11.2;;
23360;SDS011;11852;50.082;18.554;2024-01-30T06:01:15;19.9;;;10.9;;
23360;SDS011;11852;50.082;18.554;2024-01-30T06:02:20;21.9;;;12.0;;
23360;SDS011;11852;50.082;18.554;2024-01-30T06:03:25;20.9;;;11.2;;
23360;SDS011;11852;50.082;18.554;2024-01-30T06:04:29;18.9;;;10.8;;
23360;SDS011;11852;50.082;18.554;2024-01-30T06:05:34;18.9;;;10.8;;
23360;SDS011;11852;50.082;18.554;2024-01-30T06:06:40;20.0;;;11.2;;
23360;SDS011;11852;50.082;18.554;2024-01-30T06:07:46;20.5;;;11.3;;
23360;SDS011;11852;50.082;18.554;2024-01-30T06:08:51;22.6;;;12.9;;
23360;SDS011;11852;50.082;18.554;2024-01-30T06:09:56;21.2;;;10.8;;
23360;SDS011;11852;50.082;18.554;2024-01-30T06:11:02;21.3;;;11.6;;
23360;SDS011;11852;50.082;18.554;2024-01-30T06:12:07;21.9;;;12.7;;
23360;SDS011;11852;50.082;18.554;2024-01-30T06:13:12;21.6;;;11.9;;
23360;SDS011;11852;50.082;18.554;2024-01-30T06:14:17;20.7;;;12.3;;
23360;SDS011;11852;50.082;18.554;2024-01-30T06:15:22;22.4;;;12.7;;
23360;SDS011;11852;50.082;18.554;2024-01-30T06:16:27;23.6;;;12.7;;
23360;SDS011;11852;50.082;18.554;2024-01-30T06:17:32;25.0;;;13.4;;
23360;SDS011;11852;50.082;18.554;2024-01-30T06:18:37;23.0;;;12.3;;
23360;SDS011;11852;50.082;18.554;2024-01-30T06:19:48;25.0;;;13.9;;
23360;SDS011;11852;50.082;18.554;2024-01-30T06:20:53;26.4;;;13.2;;
23360;SDS011;11852;50.082;18.554;2024-01-30T06:21:58;27.7;;;14.1;;
23360;SDS011;11852;50.082;18.554;2024-01-30T06:23:03;33.9;;;16.1;;
23360;SDS011;11852;50.082;18.554;2024-01-30T06:24:08;26.3;;;13.6;;
23360;SDS011;11852;50.082;18.554;2024-01-30T06:25:13;24.8;;;13.0;;
23360;SDS011;11852;50.082;18.554;2024-01-30T06:26:18;29.8;;;14.3;;
23360;SDS011;11852;50.082;18.554;2024-01-30T06:27:23;27.7;;;14.4;;
23360;SDS011;11852;50.082;18.554;2024-01-30T06:28:28;30.7;;;15.0;;
23360;SDS011;11852;50.082;18.554;2024-01-30T06:29:33;28.5;;;14.3;;
23360;SDS011;11852;50.082;18.554;2024-01-30T06:30:38;29.6;;;14.7;;
23360;SDS011;11852;50.082;18.554;2024-01-30T06:31:43;27.2;;;14.4;;